sensor_id;sensor_type;location;lat;lon;timestamp;pressure;altitude;pressure_sealevel;temperature;humidity
73085;BME280;62974;49.460;10.892;2023-05-23T00:01:51;97401.19;;;18.54;76.08
73085;BME280;62974;49.460;10.892;2023-05-23T00:04:20;97405.63;;;18.33;77.59
73085;BME280;62974;49.460;10.892;2023-05-23T00:06:48;97400.59;;;18.15;78.25
73085;BME280;62974;49.460;10.892;2023-05-23T00:09:18;97409.25;;;17.85;80.40
73085;BME280;62974;49.460;10.892;2023-05-23T00:11:45;97412.78;;;17.59;81.79
73085;BME280;62974;49.460;10.892;2023-05-23T00:14:14;97417.50;;;17.68;82.02
73085;BME280;62974;49.460;10.892;2023-05-23T00:16:43;97420.41;;;17.62;82.54
73085;BME280;62974;49.460;10.892;2023-05-23T00:19:11;97425.38;;;17.48;84.11
73085;BME280;62974;49.460;10.892;2023-05-23T00:21:41;97419.78;;;17.55;82.87
73085;BME280;62974;49.460;10.892;2023-05-23T00:24:10;97416.28;;;17.81;81.13
73085;BME280;62974;49.460;10.892;2023-05-23T00:26:39;97417.09;;;17.81;81.10
73085;BME280;62974;49.460;10.892;2023-05-23T00:29:07;97420.09;;;18.07;79.24
73085;BME280;62974;49.460;10.892;2023-05-23T00:31:40;97422.75;;;17.75;82.07
73085;BME280;62974;49.460;10.892;2023-05-23T00:34:11;97422.22;;;17.78;82.02
73085;BME280;62974;49.460;10.892;2023-05-23T00:36:39;97415.75;;;17.84;81.56
73085;BME280;62974;49.460;10.892;2023-05-23T00:39:07;97417.66;;;17.83;81.37
73085;BME280;62974;49.460;10.892;2023-05-23T00:41:34;97429.69;;;17.66;83.33
73085;BME280;62974;49.460;10.892;2023-05-23T00:44:04;97430.50;;;17.45;84.83
73085;BME280;62974;49.460;10.892;2023-05-23T00:46:32;97428.19;;;17.75;81.65
73085;BME280;62974;49.460;10.892;2023-05-23T00:48:59;97423.13;;;17.62;83.47
73085;BME280;62974;49.460;10.892;2023-05-23T00:51:27;97426.41;;;17.64;83.48
73085;BME280;62974;49.460;10.892;2023-05-23T00:53:55;97433.81;;;17.08;87.92
73085;BME280;62974;49.460;10.892;2023-05-23T00:56:24;97434.47;;;17.15;87.85
73085;BME280;62974;49.460;10.892;2023-05-23T00:58:53;97425.38;;;17.48;85.12
73085;BME280;62974;49.460;10.892;2023-05-23T01:01:22;97434.47;;;17.15;87.81
73085;BME280;62974;49.460;10.892;2023-05-23T01:03:49;97434.53;;;16.99;88.65
73085;BME280;62974;49.460;10.892;2023-05-23T01:06:18;97429.66;;;17.01;88.51
73085;BME280;62974;49.460;10.892;2023-05-23T01:08:46;97428.59;;;17.02;89.02
73085;BME280;62974;49.460;10.892;2023-05-23T01:11:21;97428.28;;;17.20;87.87
73085;BME280;62974;49.460;10.892;2023-05-23T01:13:54;97429.22;;;17.09;87.92
73085;BME280;62974;49.460;10.892;2023-05-23T01:16:33;97420.78;;;17.27;87.21
73085;BME280;62974;49.460;10.892;2023-05-23T01:19:12;97423.06;;;17.35;86.03
73085;BME280;62974;49.460;10.892;2023-05-23T01:21:45;97428.19;;;16.93;88.92
73085;BME280;62974;49.460;10.892;2023-05-23T01:24:23;97424.91;;;16.91;89.79
73085;BME280;62974;49.460;10.892;2023-05-23T01:27:09;97429.53;;;16.74;90.50
73085;BME280;62974;49.460;10.892;2023-05-23T01:29:44;97433.38;;;16.44;93.36
73085;BME280;62974;49.460;10.892;2023-05-23T01:32:14;97426.41;;;16.49;93.51
73085;BME280;62974;49.460;10.892;2023-05-23T01:34:42;97425.69;;;16.70;92.40
73085;BME280;62974;49.460;10.892;2023-05-23T01:37:11;97422.56;;;16.78;91.85
73085;BME280;62974;49.460;10.892;2023-05-23T01:39:40;97424.19;;;16.79;91.67
73085;BME280;62974;49.460;10.892;2023-05-23T01:42:08;97424.31;;;16.67;92.65
73085;BME280;62974;49.460;10.892;2023-05-23T01:44:37;97426.34;;;16.60;93.24
73085;BME280;62974;49.460;10.892;2023-05-23T01:47:07;97419.13;;;16.66;92.65
73085;BME280;62974;49.460;10.892;2023-05-23T01:49:36;97431.19;;;16.75;92.77
73085;BME280;62974;49.460;10.892;2023-05-23T01:52:05;97431.41;;;16.90;91.73
73085;BME280;62974;49.460;10.892;2023-05-23T01:54:36;97423.03;;;16.41;95.06
73085;BME280;62974;49.460;10.892;2023-05-23T01:57:04;97421.81;;;16.49;94.10
73085;BME280;62974;49.460;10.892;2023-05-23T01:59:32;97430.78;;;16.66;93.16
73085;BME280;62974;49.460;10.892;2023-05-23T02:02:00;97430.94;;;16.43;95.30
73085;BME280;62974;49.460;10.892;2023-05-23T02:04:29;97439.47;;;16.35;96.33
73085;BME280;62974;49.460;10.892;2023-05-23T02:06:57;97430.84;;;16.55;94.51
73085;BME280;62974;49.460;10.892;2023-05-23T02:09:24;97436.34;;;16.26;96.53
73085;BME280;62974;49.460;10.892;2023-05-23T02:11:52;97432.19;;;16.35;96.70
73085;BME280;62974;49.460;10.892;2023-05-23T02:14:20;97433.81;;;16.20;97.56
73085;BME280;62974;49.460;10.892;2023-05-23T02:16:50;97429.53;;;16.24;97.64
73085;BME280;62974;49.460;10.892;2023-05-23T02:19:19;97429.19;;;16.37;95.99
73085;BME280;62974;49.460;10.892;2023-05-23T02:21:48;97433.88;;;16.08;98.42
73085;BME280;62974;49.460;10.892;2023-05-23T02:24:15;97431.00;;;16.15;98.07
73085;BME280;62974;49.460;10.892;2023-05-23T02:26:43;97437.88;;;16.06;99.46
73085;BME280;62974;49.460;10.892;2023-05-23T02:29:11;97440.94;;;16.26;97.71
73085;BME280;62974;49.460;10.892;2023-05-23T02:31:38;97434.78;;;16.14;98.84
73085;BME280;62974;49.460;10.892;2023-05-23T02:34:06;97440.53;;;16.17;97.45
73085;BME280;62974;49.460;10.892;2023-05-23T02:36:33;97442.81;;;16.25;97.93
73085;BME280;62974;49.460;10.892;2023-05-23T02:39:03;97447.22;;;15.98;99.70
73085;BME280;62974;49.460;10.892;2023-05-23T02:41:31;97449.50;;;15.89;100.00
73085;BME280;62974;49.460;10.892;2023-05-23T02:43:59;97454.03;;;15.84;100.00
73085;BME280;62974;49.460;10.892;2023-05-23T02:46:26;97453.88;;;15.90;100.00
73085;BME280;62974;49.460;10.892;2023-05-23T02:48:54;97444.47;;;16.26;97.66
73085;BME280;62974;49.460;10.892;2023-05-23T02:51:21;97449.66;;;16.28;96.77
73085;BME280;62974;49.460;10.892;2023-05-23T02:53:49;97457.88;;;15.88;100.00
73085;BME280;62974;49.460;10.892;2023-05-23T02:56:19;97452.38;;;15.83;100.00
73085;BME280;62974;49.460;10.892;2023-05-23T02:58:47;97456.19;;;15.70;100.00
73085;BME280;62974;49.460;10.892;2023-05-23T03:01:15;97454.91;;;15.89;100.00
73085;BME280;62974;49.460;10.892;2023-05-23T03:03:43;97454.84;;;15.84;100.00
73085;BME280;62974;49.460;10.892;2023-05-23T03:06:11;97461.81;;;15.97;100.00
73085;BME280;62974;49.460;10.892;2023-05-23T03:08:40;97456.41;;;15.69;100.00
73085;BME280;62974;49.460;10.892;2023-05-23T03:11:08;97461.66;;;15.59;100.00
73085;BME280;62974;49.460;10.892;2023-05-23T03:13:37;97473.28;;;15.59;100.00
73085;BME280;62974;49.460;10.892;2023-05-23T03:16:04;97465.34;;;15.69;100.00
73085;BME280;62974;49.460;10.892;2023-05-23T03:18:32;97467.53;;;15.56;100.00
73085;BME280;62974;49.460;10.892;2023-05-23T03:21:00;97471.97;;;15.62;100.00
73085;BME280;62974;49.460;10.892;2023-05-23T03:23:27;97477.16;;;15.63;100.00
73085;BME280;62974;49.460;10.892;2023-05-23T03:25:55;97472.88;;;15.79;100.00
73085;BME280;62974;49.460;10.892;2023-05-23T03:28:24;97478.59;;;15.54;100.00
73085;BME280;62974;49.460;10.892;2023-05-23T03:30:53;97483.59;;;15.74;100.00
73085;BME280;62974;49.460;10.892;2023-05-23T03:33:21;97481.28;;;15.94;100.00
73085;BME280;62974;49.460;10.892;2023-05-23T03:35:48;97499.94;;;15.79;100.00
73085;BME280;62974;49.460;10.892;2023-05-23T03:38:16;97506.00;;;15.46;100.00
73085;BME280;62974;49.460;10.892;2023-05-23T03:40:43;97503.56;;;15.56;100.00
73085;BME280;62974;49.460;10.892;2023-05-23T03:43:11;97506.97;;;15.52;100.00
73085;BME280;62974;49.460;10.892;2023-05-23T03:45:39;97504.28;;;15.52;100.00
73085;BME280;62974;49.460;10.892;2023-05-23T03:48:08;97501.63;;;15.68;100.00
73085;BME280;62974;49.460;10.892;2023-05-23T03:50:36;97515.78;;;15.47;100.00
73085;BME280;62974;49.460;10.892;2023-05-23T03:53:03;97509.63;;;16.03;100.00
73085;BME280;62974;49.460;10.892;2023-05-23T03:55:31;97507.03;;;15.96;100.00
73085;BME280;62974;49.460;10.892;2023-05-23T03:57:59;97510.44;;;15.75;100.00
73085;BME280;62974;49.460;10.892;2023-05-23T04:00:27;97503.28;;;15.58;100.00
73085;BME280;62974;49.460;10.892;2023-05-23T04:02:54;97508.69;;;15.69;100.00
73085;BME280;62974;49.460;10.892;2023-05-23T04:05:23;97508.47;;;15.99;100.00
73085;BME280;62974;49.460;10.892;2023-05-23T04:07:51;97505.31;;;15.90;100.00
73085;BME280;62974;49.460;10.892;2023-05-23T04:10:19;97514.84;;;15.93;100.00
73085;BME280;62974;49.460;10.892;2023-05-23T04:12:46;97515.13;;;15.80;100.00
73085;BME280;62974;49.460;10.892;2023-05-23T04:15:14;97529.88;;;15.61;100.00
73085;BME280;62974;49.460;10.892;2023-05-23T04:17:43;97531.13;;;15.81;100.00
73085;BME280;62974;49.460;10.892;2023-05-23T04:20:11;97529.41;;;15.75;100.00
73085;BME280;62974;49.460;10.892;2023-05-23T04:22:40;97530.19;;;15.87;100.00
73085;BME280;62974;49.460;10.892;2023-05-23T04:25:08;97525.03;;;15.74;100.00
73085;BME280;62974;49.460;10.892;2023-05-23T04:27:35;97529.06;;;15.72;100.00
73085;BME280;62974;49.460;10.892;2023-05-23T04:30:07;97535.00;;;15.85;100.00
73085;BME280;62974;49.460;10.892;2023-05-23T04:32:35;97540.34;;;15.80;100.00
73085;BME280;62974;49.460;10.892;2023-05-23T04:35:04;97547.75;;;15.73;100.00
73085;BME280;62974;49.460;10.892;2023-05-23T04:37:31;97543.47;;;15.89;100.00
73085;BME280;62974;49.460;10.892;2023-05-23T04:40:00;97544.06;;;15.91;100.00
73085;BME280;62974;49.460;10.892;2023-05-23T04:42:29;97543.25;;;16.19;100.00
73085;BME280;62974;49.460;10.892;2023-05-23T04:44:56;97547.41;;;16.10;100.00
73085;BME280;62974;49.460;10.892;2023-05-23T04:47:24;97540.44;;;16.14;100.00
73085;BME280;62974;49.460;10.892;2023-05-23T04:49:54;97541.66;;;16.06;100.00
73085;BME280;62974;49.460;10.892;2023-05-23T04:52:22;97539.03;;;16.11;100.00
73085;BME280;62974;49.460;10.892;2023-05-23T04:54:52;97545.31;;;16.28;100.00
73085;BME280;62974;49.460;10.892;2023-05-23T04:57:22;97542.56;;;16.40;100.00
73085;BME280;62974;49.460;10.892;2023-05-23T04:59:53;97546.00;;;16.52;100.00
73085;BME280;62974;49.460;10.892;2023-05-23T05:02:20;97549.03;;;16.39;100.00
73085;BME280;62974;49.460;10.892;2023-05-23T05:04:48;97555.22;;;16.51;100.00
73085;BME280;62974;49.460;10.892;2023-05-23T05:07:16;97558.00;;;16.39;100.00
73085;BME280;62974;49.460;10.892;2023-05-23T05:09:44;97557.59;;;16.48;100.00
73085;BME280;62974;49.460;10.892;2023-05-23T05:12:11;97559.22;;;16.77;100.00
73085;BME280;62974;49.460;10.892;2023-05-23T05:14:40;97564.38;;;16.62;100.00
73085;BME280;62974;49.460;10.892;2023-05-23T05:17:08;97563.81;;;16.93;100.00
73085;BME280;62974;49.460;10.892;2023-05-23T05:19:36;97567.75;;;16.69;100.00
73085;BME280;62974;49.460;10.892;2023-05-23T05:22:03;97573.09;;;16.80;100.00
73085;BME280;62974;49.460;10.892;2023-05-23T05:24:31;97569.53;;;16.92;100.00
73085;BME280;62974;49.460;10.892;2023-05-23T05:26:59;97561.53;;;17.18;98.79
73085;BME280;62974;49.460;10.892;2023-05-23T05:29:26;97560.97;;;17.00;99.05
73085;BME280;62974;49.460;10.892;2023-05-23T05:31:55;97566.41;;;17.00;100.00
73085;BME280;62974;49.460;10.892;2023-05-23T05:34:23;97555.81;;;17.20;98.35
73085;BME280;62974;49.460;10.892;2023-05-23T05:36:50;97549.09;;;17.22;98.06
73085;BME280;62974;49.460;10.892;2023-05-23T05:39:23;97556.19;;;17.07;97.16
73085;BME280;62974;49.460;10.892;2023-05-23T05:41:51;97559.53;;;17.30;97.31
73085;BME280;62974;49.460;10.892;2023-05-23T05:44:19;97567.03;;;17.23;97.10
73085;BME280;62974;49.460;10.892;2023-05-23T05:46:46;97566.41;;;17.00;97.42
73085;BME280;62974;49.460;10.892;2023-05-23T05:49:16;97566.78;;;17.25;98.03
73085;BME280;62974;49.460;10.892;2023-05-23T05:51:43;97557.03;;;17.46;95.77
73085;BME280;62974;49.460;10.892;2023-05-23T05:54:11;97572.38;;;17.35;96.03
73085;BME280;62974;49.460;10.892;2023-05-23T05:56:38;97560.66;;;17.51;94.47
73085;BME280;62974;49.460;10.892;2023-05-23T05:59:07;97560.75;;;17.78;92.19
73085;BME280;62974;49.460;10.892;2023-05-23T06:01:35;97560.66;;;18.11;90.50
73085;BME280;62974;49.460;10.892;2023-05-23T06:04:03;97563.09;;;18.13;91.83
73085;BME280;62974;49.460;10.892;2023-05-23T06:06:32;97565.88;;;17.96;91.81
73085;BME280;62974;49.460;10.892;2023-05-23T06:09:00;97561.69;;;17.89;91.67
73085;BME280;62974;49.460;10.892;2023-05-23T06:11:27;97569.47;;;17.58;92.71
73085;BME280;62974;49.460;10.892;2023-05-23T06:13:55;97573.72;;;17.71;92.00
73085;BME280;62974;49.460;10.892;2023-05-23T06:16:23;97574.97;;;17.63;93.59
73085;BME280;62974;49.460;10.892;2023-05-23T06:18:50;97576.69;;;17.69;94.76
73085;BME280;62974;49.460;10.892;2023-05-23T06:21:18;97569.47;;;17.80;91.33
73085;BME280;62974;49.460;10.892;2023-05-23T06:23:47;97569.66;;;17.57;91.62
73085;BME280;62974;49.460;10.892;2023-05-23T06:26:15;97569.34;;;17.70;91.13
73085;BME280;62974;49.460;10.892;2023-05-23T06:28:42;97579.50;;;17.58;92.40
73085;BME280;62974;49.460;10.892;2023-05-23T06:31:10;97573.72;;;17.71;91.49
73085;BME280;62974;49.460;10.892;2023-05-23T06:33:37;97577.38;;;17.81;91.58
73085;BME280;62974;49.460;10.892;2023-05-23T06:36:05;97565.63;;;17.98;91.20
73085;BME280;62974;49.460;10.892;2023-05-23T06:38:33;97578.44;;;17.59;91.71
73085;BME280;62974;49.460;10.892;2023-05-23T06:41:02;97572.84;;;18.36;91.18
73085;BME280;62974;49.460;10.892;2023-05-23T06:43:32;97577.00;;;18.16;90.18
73085;BME280;62974;49.460;10.892;2023-05-23T06:45:59;97587.69;;;18.01;91.08
73085;BME280;62974;49.460;10.892;2023-05-23T06:48:27;97584.31;;;18.16;90.19
73085;BME280;62974;49.460;10.892;2023-05-23T06:50:55;97584.38;;;18.21;90.04
73085;BME280;62974;49.460;10.892;2023-05-23T06:53:22;97588.38;;;18.13;87.56
73085;BME280;62974;49.460;10.892;2023-05-23T06:55:50;97592.97;;;18.35;87.10
73085;BME280;62974;49.460;10.892;2023-05-23T06:58:21;97587.81;;;18.11;87.95
73085;BME280;62974;49.460;10.892;2023-05-23T07:00:53;97593.94;;;18.02;87.47
73085;BME280;62974;49.460;10.892;2023-05-23T07:03:20;97597.56;;;18.07;89.09
73085;BME280;62974;49.460;10.892;2023-05-23T07:05:48;97596.84;;;18.39;87.29
73085;BME280;62974;49.460;10.892;2023-05-23T07:08:17;97594.13;;;18.39;87.88
73085;BME280;62974;49.460;10.892;2023-05-23T07:10:45;97597.16;;;18.69;86.89
73085;BME280;62974;49.460;10.892;2023-05-23T07:13:13;97603.28;;;18.54;86.57
73085;BME280;62974;49.460;10.892;2023-05-23T07:15:42;97607.56;;;18.28;88.16
73085;BME280;62974;49.460;10.892;2023-05-23T07:18:10;97616.34;;;17.92;91.19
73085;BME280;62974;49.460;10.892;2023-05-23T07:20:37;97606.75;;;17.84;90.57
73085;BME280;62974;49.460;10.892;2023-05-23T07:23:05;97614.91;;;17.84;90.39
73085;BME280;62974;49.460;10.892;2023-05-23T07:25:33;97614.28;;;17.77;90.32
73085;BME280;62974;49.460;10.892;2023-05-23T07:28:00;97602.28;;;17.95;89.31
73085;BME280;62974;49.460;10.892;2023-05-23T07:30:28;97613.16;;;17.95;88.78
73085;BME280;62974;49.460;10.892;2023-05-23T07:32:59;97623.97;;;17.57;90.60
73085;BME280;62974;49.460;10.892;2023-05-23T07:35:27;97622.72;;;17.59;91.23
73085;BME280;62974;49.460;10.892;2023-05-23T07:37:55;97623.28;;;17.61;90.08
73085;BME280;62974;49.460;10.892;2023-05-23T07:40:23;97624.06;;;17.78;89.96
73085;BME280;62974;49.460;10.892;2023-05-23T07:42:51;97625.63;;;17.74;90.44
73085;BME280;62974;49.460;10.892;2023-05-23T07:45:19;97632.88;;;18.07;88.47
73085;BME280;62974;49.460;10.892;2023-05-23T07:47:47;97629.47;;;17.95;86.54
73085;BME280;62974;49.460;10.892;2023-05-23T07:50:17;97623.22;;;17.95;86.04
73085;BME280;62974;49.460;10.892;2023-05-23T07:52:44;97618.78;;;18.10;84.87
73085;BME280;62974;49.460;10.892;2023-05-23T07:55:12;97621.53;;;18.15;84.20
73085;BME280;62974;49.460;10.892;2023-05-23T07:57:39;97622.03;;;18.07;85.75
73085;BME280;62974;49.460;10.892;2023-05-23T08:00:08;97627.44;;;17.69;85.48
73085;BME280;62974;49.460;10.892;2023-05-23T08:02:36;97622.19;;;18.01;83.34
73085;BME280;62974;49.460;10.892;2023-05-23T08:05:04;97622.19;;;18.01;81.67
73085;BME280;62974;49.460;10.892;2023-05-23T08:07:33;97621.88;;;17.97;79.96
73085;BME280;62974;49.460;10.892;2023-05-23T08:10:01;97622.31;;;18.33;77.42
73085;BME280;62974;49.460;10.892;2023-05-23T08:12:29;97610.72;;;18.91;74.58
73085;BME280;62974;49.460;10.892;2023-05-23T08:14:56;97612.56;;;19.17;73.92
73085;BME280;62974;49.460;10.892;2023-05-23T08:17:24;97612.56;;;18.58;74.24
73085;BME280;62974;49.460;10.892;2023-05-23T08:19:52;97624.78;;;18.34;75.60
73085;BME280;62974;49.460;10.892;2023-05-23T08:22:20;97616.31;;;18.52;75.46
73085;BME280;62974;49.460;10.892;2023-05-23T08:24:48;97619.41;;;18.61;77.29
73085;BME280;62974;49.460;10.892;2023-05-23T08:27:16;97618.13;;;18.47;75.53
73085;BME280;62974;49.460;10.892;2023-05-23T08:29:44;97626.06;;;18.26;75.54
73085;BME280;62974;49.460;10.892;2023-05-23T08:32:11;97629.38;;;18.55;75.79
73085;BME280;62974;49.460;10.892;2023-05-23T08:34:39;97628.63;;;18.60;75.08
73085;BME280;62974;49.460;10.892;2023-05-23T08:37:07;97623.13;;;19.08;73.70
73085;BME280;62974;49.460;10.892;2023-05-23T08:39:34;97622.09;;;19.14;73.13
73085;BME280;62974;49.460;10.892;2023-05-23T08:42:04;97624.16;;;19.02;71.71
73085;BME280;62974;49.460;10.892;2023-05-23T08:44:31;97632.53;;;19.28;72.50
73085;BME280;62974;49.460;10.892;2023-05-23T08:47:02;97614.53;;;19.53;66.88
73085;BME280;62974;49.460;10.892;2023-05-23T08:49:31;97622.34;;;19.87;64.57
73085;BME280;62974;49.460;10.892;2023-05-23T08:52:01;97636.28;;;19.90;67.01
73085;BME280;62974;49.460;10.892;2023-05-23T08:54:29;97642.25;;;19.45;69.08
73085;BME280;62974;49.460;10.892;2023-05-23T08:56:58;97658.72;;;18.75;72.33
73085;BME280;62974;49.460;10.892;2023-05-23T08:59:28;97650.44;;;18.92;73.07
73085;BME280;62974;49.460;10.892;2023-05-23T09:01:57;97648.78;;;18.64;72.16
73085;BME280;62974;49.460;10.892;2023-05-23T09:04:24;97664.72;;;19.04;73.53
73085;BME280;62974;49.460;10.892;2023-05-23T09:06:55;97658.66;;;18.70;73.93
73085;BME280;62974;49.460;10.892;2023-05-23T09:09:23;97649.97;;;19.27;72.82
73085;BME280;62974;49.460;10.892;2023-05-23T09:11:51;97654.78;;;19.19;70.46
73085;BME280;62974;49.460;10.892;2023-05-23T09:14:19;97665.78;;;18.76;72.78
73085;BME280;62974;49.460;10.892;2023-05-23T09:16:48;97666.69;;;19.40;71.83
73085;BME280;62974;49.460;10.892;2023-05-23T09:19:17;97676.34;;;18.94;73.34
73085;BME280;62974;49.460;10.892;2023-05-23T09:21:45;97692.53;;;18.57;75.54
73085;BME280;62974;49.460;10.892;2023-05-23T09:24:12;97671.59;;;18.85;72.83
73085;BME280;62974;49.460;10.892;2023-05-23T09:26:40;97682.34;;;18.96;72.08
73085;BME280;62974;49.460;10.892;2023-05-23T09:29:07;97682.03;;;18.93;72.74
73085;BME280;62974;49.460;10.892;2023-05-23T09:31:35;97688.06;;;18.51;73.62
73085;BME280;62974;49.460;10.892;2023-05-23T09:34:04;97687.94;;;18.85;73.32
73085;BME280;62974;49.460;10.892;2023-05-23T09:36:32;97688.09;;;18.73;72.52
73085;BME280;62974;49.460;10.892;2023-05-23T09:39:00;97687.00;;;19.01;72.30
73085;BME280;62974;49.460;10.892;2023-05-23T09:41:29;97684.88;;;19.61;70.41
73085;BME280;62974;49.460;10.892;2023-05-23T09:43:57;97683.84;;;18.82;70.18
73085;BME280;62974;49.460;10.892;2023-05-23T09:46:27;97690.50;;;18.69;69.63
73085;BME280;62974;49.460;10.892;2023-05-23T09:48:55;97693.69;;;18.88;69.53
73085;BME280;62974;49.460;10.892;2023-05-23T09:51:28;97702.22;;;18.31;70.45
73085;BME280;62974;49.460;10.892;2023-05-23T09:53:55;97711.22;;;17.94;71.51
73085;BME280;62974;49.460;10.892;2023-05-23T09:56:23;97720.50;;;18.14;71.35
73085;BME280;62974;49.460;10.892;2023-05-23T09:58:52;97709.16;;;18.01;70.30
73085;BME280;62974;49.460;10.892;2023-05-23T10:01:22;97718.38;;;18.00;70.15
73085;BME280;62974;49.460;10.892;2023-05-23T10:03:51;97699.09;;;18.01;66.58
73085;BME280;62974;49.460;10.892;2023-05-23T10:06:31;97702.88;;;18.00;67.48
73085;BME280;62974;49.460;10.892;2023-05-23T10:09:04;97705.50;;;18.12;67.49
73085;BME280;62974;49.460;10.892;2023-05-23T10:14:37;97675.28;;;19.27;61.77
73085;BME280;62974;49.460;10.892;2023-05-23T10:17:11;97682.91;;;19.25;62.05
73085;BME280;62974;49.460;10.892;2023-05-23T10:19:43;97692.38;;;18.91;62.85
73085;BME280;62974;49.460;10.892;2023-05-23T10:22:15;97709.94;;;18.83;64.93
73085;BME280;62974;49.460;10.892;2023-05-23T10:24:44;97699.72;;;18.68;66.32
73085;BME280;62974;49.460;10.892;2023-05-23T10:27:12;97712.91;;;18.16;67.23
73085;BME280;62974;49.460;10.892;2023-05-23T10:29:40;97704.06;;;18.26;66.56
73085;BME280;62974;49.460;10.892;2023-05-23T10:32:09;97718.56;;;17.76;67.90
73085;BME280;62974;49.460;10.892;2023-05-23T10:34:42;97720.88;;;18.23;66.31
73085;BME280;62974;49.460;10.892;2023-05-23T10:37:21;97723.06;;;18.43;64.69
73085;BME280;62974;49.460;10.892;2023-05-23T10:39:56;97716.53;;;18.44;65.68
73085;BME280;62974;49.460;10.892;2023-05-23T10:42:32;97718.16;;;18.61;64.94
73085;BME280;62974;49.460;10.892;2023-05-23T10:45:16;97718.72;;;18.25;65.60
73085;BME280;62974;49.460;10.892;2023-05-23T10:47:46;97720.09;;;18.06;66.39
73085;BME280;62974;49.460;10.892;2023-05-23T10:50:14;97714.69;;;18.49;64.80
73085;BME280;62974;49.460;10.892;2023-05-23T10:52:43;97727.81;;;18.74;65.15
73085;BME280;62974;49.460;10.892;2023-05-23T10:55:12;97726.78;;;18.37;65.17
73085;BME280;62974;49.460;10.892;2023-05-23T10:57:40;97724.09;;;18.20;65.50
73085;BME280;62974;49.460;10.892;2023-05-23T11:00:13;97723.50;;;18.35;66.52
73085;BME280;62974;49.460;10.892;2023-05-23T11:02:52;97736.28;;;17.79;67.63
73085;BME280;62974;49.460;10.892;2023-05-23T11:05:21;97736.97;;;18.08;67.10
73085;BME280;62974;49.460;10.892;2023-05-23T11:08:07;97734.59;;;18.11;67.87
73085;BME280;62974;49.460;10.892;2023-05-23T11:10:52;97738.47;;;17.99;66.88
73085;BME280;62974;49.460;10.892;2023-05-23T11:13:20;97730.00;;;17.95;66.61
73085;BME280;62974;49.460;10.892;2023-05-23T11:15:48;97742.34;;;18.03;67.83
73085;BME280;62974;49.460;10.892;2023-05-23T11:18:20;97725.34;;;18.72;68.13
73085;BME280;62974;49.460;10.892;2023-05-23T11:20:49;97723.47;;;19.00;66.02
73085;BME280;62974;49.460;10.892;2023-05-23T11:23:22;97733.88;;;18.81;67.50
73085;BME280;62974;49.460;10.892;2023-05-23T11:25:51;97725.53;;;18.27;66.65
73085;BME280;62974;49.460;10.892;2023-05-23T11:28:19;97719.34;;;18.10;65.44
73085;BME280;62974;49.460;10.892;2023-05-23T11:30:47;97728.63;;;18.31;68.88
73085;BME280;62974;49.460;10.892;2023-05-23T11:33:16;97734.53;;;17.90;67.19
73085;BME280;62974;49.460;10.892;2023-05-23T11:35:44;97728.72;;;18.41;67.63
73085;BME280;62974;49.460;10.892;2023-05-23T11:38:13;97726.34;;;18.06;66.14
73085;BME280;62974;49.460;10.892;2023-05-23T11:40:43;97727.09;;;18.02;66.39
73085;BME280;62974;49.460;10.892;2023-05-23T11:43:13;97730.97;;;18.27;66.87
73085;BME280;62974;49.460;10.892;2023-05-23T11:45:42;97728.03;;;18.29;66.07
73085;BME280;62974;49.460;10.892;2023-05-23T11:48:13;97730.97;;;18.27;67.28
73085;BME280;62974;49.460;10.892;2023-05-23T11:50:46;97727.09;;;18.02;67.38
73085;BME280;62974;49.460;10.892;2023-05-23T11:53:15;97724.81;;;17.94;67.00
73085;BME280;62974;49.460;10.892;2023-05-23T11:55:50;97730.00;;;17.78;68.08
73085;BME280;62974;49.460;10.892;2023-05-23T11:58:20;97740.19;;;17.88;68.35
73085;BME280;62974;49.460;10.892;2023-05-23T12:00:48;97728.91;;;17.96;67.10
73085;BME280;62974;49.460;10.892;2023-05-23T12:03:17;97729.59;;;18.03;67.23
73085;BME280;62974;49.460;10.892;2023-05-23T12:05:45;97728.03;;;18.29;67.33
73085;BME280;62974;49.460;10.892;2023-05-23T12:08:12;97730.19;;;18.49;67.31
73085;BME280;62974;49.460;10.892;2023-05-23T12:10:52;97728.88;;;18.13;65.59
73085;BME280;62974;49.460;10.892;2023-05-23T12:13:23;97731.25;;;18.26;64.89
73085;BME280;62974;49.460;10.892;2023-05-23T12:15:53;97726.69;;;18.10;63.94
73085;BME280;62974;49.460;10.892;2023-05-23T12:18:21;97734.84;;;18.31;64.44
73085;BME280;62974;49.460;10.892;2023-05-23T12:20:50;97729.13;;;18.50;63.96
73085;BME280;62974;49.460;10.892;2023-05-23T12:23:18;97720.78;;;18.78;62.62
73085;BME280;62974;49.460;10.892;2023-05-23T12:25:49;97711.75;;;18.99;63.34
73085;BME280;62974;49.460;10.892;2023-05-23T12:28:18;97716.25;;;19.10;62.72
73085;BME280;62974;49.460;10.892;2023-05-23T12:30:46;97722.03;;;18.49;63.94
73085;BME280;62974;49.460;10.892;2023-05-23T12:33:13;97735.22;;;18.57;65.29
73085;BME280;62974;49.460;10.892;2023-05-23T12:35:44;97737.25;;;18.28;65.94
73085;BME280;62974;49.460;10.892;2023-05-23T12:38:14;97737.91;;;18.35;65.29
73085;BME280;62974;49.460;10.892;2023-05-23T12:40:42;97744.22;;;18.19;66.04
73085;BME280;62974;49.460;10.892;2023-05-23T12:43:10;97734.38;;;18.35;66.05
73085;BME280;62974;49.460;10.892;2023-05-23T12:45:39;97749.94;;;18.39;66.83
73085;BME280;62974;49.460;10.892;2023-05-23T12:48:07;97752.59;;;18.17;66.92
73085;BME280;62974;49.460;10.892;2023-05-23T12:50:35;97749.69;;;18.24;67.75
73085;BME280;62974;49.460;10.892;2023-05-23T12:53:03;97764.22;;;18.13;68.36
73085;BME280;62974;49.460;10.892;2023-05-23T12:55:31;97751.97;;;18.10;67.11
73085;BME280;62974;49.460;10.892;2023-05-23T12:57:59;97752.13;;;18.04;67.68
73085;BME280;62974;49.460;10.892;2023-05-23T13:00:26;97750.72;;;18.01;67.39